Time;durP1;ratioP1;P1;durP2;ratioP2;P2;SDS_P1;SDS_P2;PMS_P1;PMS_P2;Temp;Humidity;BMP_temperature;BMP_pressure;BME280_temperature;BME280_humidity;BME280_pressure;Samples;Min_cycle;Max_cycle;Signal;HPM_P1;HPM_P2
2023/02/06 00:03:23;;;;;;;37.20;19.20;;;;;;;-4.09;74.86;100997.00;221836;1277;25469;-75
2023/02/06 00:08:27;;;;;;;37.50;19.20;;;;;;;-4.11;75.12;100996.87;221708;1255;25794;-72
2023/02/06 00:13:35;;;;;;;40.80;21.00;;;;;;;-4.11;74.94;101003.91;221695;1277;22704;-73
2023/02/06 00:18:37;;;;;;;45.70;23.10;;;;;;;-4.05;75.07;101005.16;221660;1273;22800;-72
2023/02/06 00:23:40;;;;;;;60.40;29.20;;;;;;;-4.00;75.17;101002.08;221686;1275;22783;-74
2023/02/06 00:28:43;;;;;;;55.60;27.00;;;;;;;-3.94;75.10;100995.04;221744;1274;25675;-73
2023/02/06 00:33:46;;;;;;;34.20;18.30;;;;;;;-3.87;75.13;100997.27;221740;1276;24277;-73
2023/02/06 00:38:51;;;;;;;35.60;20.20;;;;;;;-3.82;75.17;100999.36;221762;1272;22748;-74
2023/02/06 00:43:54;;;;;;;48.60;19.20;;;;;;;-3.79;75.10;100997.55;221713;1277;26668;-74
2023/02/06 00:48:57;;;;;;;37.60;19.60;;;;;;;-3.79;75.05;100996.52;221761;1274;24328;-74
2023/02/06 00:54:00;;;;;;;40.90;20.10;;;;;;;-3.76;75.27;100982.83;221754;1277;22669;-74
2023/02/06 00:59:02;;;;;;;42.10;21.70;;;;;;;-3.74;75.19;100974.36;221631;1273;22761;-72
2023/02/06 01:04:06;;;;;;;39.90;21.20;;;;;;;-3.75;75.33;100973.16;221602;1260;23771;-73
2023/02/06 01:09:12;;;;;;;36.60;19.10;;;;;;;-3.74;75.28;100966.78;221738;1276;25491;-74
2023/02/06 01:14:14;;;;;;;35.70;19.50;;;;;;;-3.75;75.29;100961.46;221794;1275;25487;-74
2023/02/06 01:19:20;;;;;;;40.10;22.30;;;;;;;-3.75;75.41;100959.74;221649;1275;24285;-74
2023/02/06 01:24:25;;;;;;;38.70;22.50;;;;;;;-3.75;75.64;100956.80;221661;1277;22535;-73
2023/02/06 01:29:27;;;;;;;47.60;22.80;;;;;;;-3.77;75.48;100963.08;221726;1273;23895;-74
2023/02/06 01:34:45;;;;;;;51.60;25.70;;;;;;;-3.81;75.46;100958.86;221737;1277;22575;-72
2023/02/06 01:39:47;;;;;;;;;;;;;;;-3.81;75.51;100960.77;221815;1271;25284;-73
2023/02/06 01:45:19;;;;;;;41.80;24.00;;;;;;;-3.82;75.59;100961.15;221742;1275;25567;-73
2023/02/06 01:50:21;;;;;;;41.60;21.30;;;;;;;-3.83;75.85;100951.02;221835;1274;24147;-74
2023/02/06 01:55:23;;;;;;;48.10;25.50;;;;;;;-3.86;75.83;100942.34;221716;1275;22601;-73
2023/02/06 02:00:26;;;;;;;45.50;23.60;;;;;;;-3.87;76.03;100933.58;221612;1277;22773;-74
2023/02/06 02:05:28;;;;;;;48.00;24.90;;;;;;;-3.87;76.11;100920.69;221683;1276;22566;-73
2023/02/06 02:10:32;;;;;;;43.00;25.10;;;;;;;-3.89;76.16;100914.72;221499;1274;22785;-74
2023/02/06 02:15:48;;;;;;;48.70;27.20;;;;;;;-3.91;76.05;100915.96;221824;1274;22755;-74
2023/02/06 02:21:34;;;;;;;42.30;23.80;;;;;;;-3.91;76.30;100907.52;221794;1275;22567;-74
2023/02/06 02:26:55;;;;;;;48.80;26.70;;;;;;;-3.91;76.37;100908.55;221812;1275;23459;-73
2023/02/06 02:32:34;;;;;;;47.90;26.60;;;;;;;-3.88;76.48;100902.12;221784;1274;22582;-74
2023/02/06 02:38:01;;;;;;;44.70;24.60;;;;;;;-3.86;76.63;100907.41;221680;1277;24398;-74
2023/02/06 02:43:19;;;;;;;42.90;23.90;;;;;;;-3.87;76.59;100908.11;221813;1254;23049;-74
2023/02/06 02:48:39;;;;;;;43.50;25.40;;;;;;;-3.86;76.62;100901.38;221797;1272;22588;-74
2023/02/06 02:53:42;;;;;;;39.30;23.00;;;;;;;-3.88;76.77;100897.63;221769;1277;22559;-73
2023/02/06 02:58:49;;;;;;;46.10;24.80;;;;;;;-3.88;77.05;100891.09;221787;1275;22566;-74
2023/02/06 03:03:56;;;;;;;45.30;24.40;;;;;;;-3.88;77.06;100903.13;221597;1259;22760;-74
2023/02/06 03:09:25;;;;;;;46.40;24.70;;;;;;;-3.95;76.68;100898.69;221708;1272;22588;-74
2023/02/06 03:14:38;;;;;;;42.50;22.90;;;;;;;-4.02;76.84;100900.78;221885;1273;22769;-73
2023/02/06 03:19:51;;;;;;;46.20;23.20;;;;;;;-4.04;76.88;100887.59;221757;1266;22991;-73
2023/02/06 03:24:57;;;;;;;41.80;23.60;;;;;;;-4.12;76.73;100887.29;221741;1276;22650;-74
2023/02/06 03:30:02;;;;;;;50.50;26.70;;;;;;;-4.19;76.82;100891.63;221966;1275;24344;-74
2023/02/06 03:35:16;;;;;;;47.70;25.90;;;;;;;-4.25;77.18;100895.59;221753;1275;22653;-74
2023/02/06 03:40:19;;;;;;;47.20;25.00;;;;;;;-4.24;77.60;100894.52;222032;1274;22568;-74
2023/02/06 03:45:25;;;;;;;41.50;23.40;;;;;;;-4.17;77.99;100899.17;221782;1277;22737;-74
2023/02/06 03:50:30;;;;;;;49.80;27.50;;;;;;;-4.09;78.08;100900.64;221840;1277;25734;-74
2023/02/06 03:55:35;;;;;;;52.10;28.80;;;;;;;-4.06;77.83;100903.66;221651;1276;24331;-74
2023/02/06 04:00:40;;;;;;;51.50;29.20;;;;;;;-4.01;77.92;100906.63;221854;1275;24318;-74
2023/02/06 04:05:42;;;;;;;47.80;26.20;;;;;;;-4.00;77.82;100897.95;221794;1272;22768;-74
2023/02/06 04:10:44;;;;;;;54.20;30.40;;;;;;;-3.98;77.88;100896.00;221624;1275;25511;-72
2023/02/06 04:15:46;;;;;;;56.30;29.40;;;;;;;-4.00;77.75;100899.52;221752;1273;22569;-73
2023/02/06 04:20:51;;;;;;;54.00;30.60;;;;;;;-4.03;77.90;100896.17;221750;1277;27569;-74
2023/02/06 04:25:53;;;;;;;54.40;30.20;;;;;;;-3.99;78.24;100895.70;221777;1272;22705;-74
2023/02/06 04:30:55;;;;;;;48.70;27.90;;;;;;;-3.96;78.44;100886.98;221813;1277;25438;-74
2023/02/06 04:35:58;;;;;;;49.80;29.30;;;;;;;-3.92;78.21;100893.10;221796;1275;24257;-73
2023/02/06 04:41:02;;;;;;;63.20;34.20;;;;;;;-3.88;78.41;100895.23;221527;1277;22578;-73
2023/02/06 04:46:04;;;;;;;47.20;27.10;;;;;;;-3.85;78.32;100896.00;221839;1266;22651;-74
2023/02/06 04:51:07;;;;;;;45.70;26.80;;;;;;;-3.83;77.95;100897.13;221737;1275;23260;-73
2023/02/06 04:56:11;;;;;;;43.20;27.20;;;;;;;-3.81;77.96;100892.59;221757;1275;23365;-74
2023/02/06 05:01:15;;;;;;;43.30;27.00;;;;;;;-3.74;77.88;100895.01;221713;1275;24318;-73
2023/02/06 05:06:21;;;;;;;49.40;29.50;;;;;;;-3.71;77.63;100890.27;221751;1277;25741;-74
2023/02/06 05:11:25;;;;;;;80.30;43.80;;;;;;;-3.70;77.86;100884.50;221766;1272;24410;-74
2023/02/06 05:16:27;;;;;;;40.20;25.10;;;;;;;-3.71;77.81;100884.38;221760;1277;22971;-73
2023/02/06 05:21:30;;;;;;;39.20;21.90;;;;;;;-3.77;77.67;100895.75;221815;1277;22699;-74
2023/02/06 05:26:32;;;;;;;34.40;20.50;;;;;;;-3.80;77.85;100900.66;221753;1275;24260;-74
2023/02/06 05:31:35;;;;;;;35.20;20.80;;;;;;;-3.78;78.07;100897.17;221567;1277;22610;-73
2023/02/06 05:36:37;;;;;;;36.90;21.10;;;;;;;-3.81;78.07;100899.15;221812;1272;22591;-73
2023/02/06 05:41:39;;;;;;;42.60;24.70;;;;;;;-3.82;78.09;100899.52;221880;1273;22529;-73
2023/02/06 05:46:43;;;;;;;44.20;27.10;;;;;;;-3.81;78.22;100897.61;221811;1275;22689;-73
2023/02/06 05:51:45;;;;;;;46.10;26.50;;;;;;;-3.80;78.34;100899.80;221691;1277;22582;-74
2023/02/06 05:56:47;;;;;;;45.80;26.90;;;;;;;-3.80;78.36;100901.00;221649;1255;23029;-73
2023/02/06 06:01:49;;;;;;;42.90;24.30;;;;;;;-3.76;78.43;100906.25;221889;1275;23867;-75
2023/02/06 06:06:55;;;;;;;46.30;28.40;;;;;;;-3.74;78.60;100905.31;221759;1275;22610;-73
2023/02/06 06:11:57;;;;;;;48.30;28.90;;;;;;;-3.71;78.52;100905.20;221909;1269;22556;-73
2023/02/06 06:17:00;;;;;;;49.70;29.80;;;;;;;-3.69;78.39;100907.88;221707;1277;22864;-74
2023/02/06 06:22:04;;;;;;;54.40;32.30;;;;;;;-3.69;78.18;100909.61;221739;1254;23048;-74
2023/02/06 06:27:09;;;;;;;56.70;32.40;;;;;;;-3.67;78.56;100911.29;221889;1277;22684;-73
2023/02/06 06:32:12;;;;;;;65.30;37.40;;;;;;;-3.70;78.43;100909.33;221785;1267;22970;-74
2023/02/06 06:37:14;;;;;;;67.30;37.60;;;;;;;-3.72;78.55;100908.19;221697;1276;22594;-73
2023/02/06 06:42:17;;;;;;;68.80;39.80;;;;;;;-3.72;78.75;100908.17;221854;1275;25494;-74
2023/02/06 06:47:19;;;;;;;66.90;34.90;;;;;;;-3.71;78.90;100902.77;221884;1272;26672;-74
2023/02/06 06:52:21;;;;;;;61.40;36.30;;;;;;;-3.75;78.52;100906.89;221611;1275;23894;-74
2023/02/06 06:57:31;;;;;;;71.40;37.70;;;;;;;-3.76;78.38;100916.23;221979;1270;24784;-73
2023/02/06 07:02:35;;;;;;;70.90;38.30;;;;;;;-3.74;78.48;100911.84;222505;1265;22544;-73
2023/02/06 07:07:38;;;;;;;76.60;40.10;;;;;;;-3.70;78.45;100913.80;222811;1257;23322;-74
2023/02/06 07:12:40;;;;;;;83.20;44.70;;;;;;;-3.64;78.61;100915.84;222097;1263;141315;-73
2023/02/06 07:17:42;;;;;;;77.70;43.00;;;;;;;-3.53;78.55;100912.42;221092;1277;139462;-75
2023/02/06 07:22:46;;;;;;;68.00;38.70;;;;;;;-3.48;78.32;100911.22;220982;1283;22731;-73
2023/02/06 07:27:48;;;;;;;73.10;42.50;;;;;;;-3.46;78.40;100910.30;221414;1275;138656;-74
2023/02/06 07:32:50;;;;;;;67.30;38.10;;;;;;;-3.38;78.15;100909.88;221781;1264;139107;-74
2023/02/06 07:37:53;;;;;;;74.80;42.10;;;;;;;-3.29;78.27;100908.73;222121;1269;138906;-74
2023/02/06 07:42:55;;;;;;;76.00;42.80;;;;;;;-3.15;78.20;100914.16;222933;1264;139545;-74
2023/02/06 07:48:03;;;;;;;75.30;40.70;;;;;;;-2.98;78.07;100912.39;222867;1265;139451;-75
2023/02/06 07:53:06;;;;;;;91.10;47.40;;;;;;;-2.89;77.86;100912.09;222584;1268;24346;-75
2023/02/06 07:58:11;;;;;;;79.40;45.00;;;;;;;-2.69;77.83;100913.13;222915;1265;140259;-75
2023/02/06 08:03:16;;;;;;;69.60;40.90;;;;;;;-2.56;77.29;100908.02;222921;1262;139320;-74
2023/02/06 08:08:24;;;;;;;88.60;48.60;;;;;;;-2.45;77.01;100906.80;223173;1271;139111;-75
2023/02/06 08:13:27;;;;;;;96.30;53.30;;;;;;;-2.39;76.60;100903.31;223134;1267;139489;-75
2023/02/06 08:18:29;;;;;;;102.50;55.50;;;;;;;-2.36;76.23;100905.80;222346;1262;139740;-75
2023/02/06 08:23:31;;;;;;;109.20;60.30;;;;;;;-2.27;76.38;100912.39;222767;1259;139892;-73
2023/02/06 08:28:34;;;;;;;107.40;58.30;;;;;;;-2.20;76.69;100913.67;223368;1268;22729;-73
2023/02/06 08:33:37;;;;;;;100.80;54.60;;;;;;;-2.08;76.40;100928.41;222942;1262;140468;-75
2023/02/06 08:38:41;;;;;;;90.90;50.80;;;;;;;-2.00;76.12;100927.78;223358;1259;139785;-75
2023/02/06 08:43:47;;;;;;;78.80;44.90;;;;;;;-1.94;75.99;100926.20;222055;1278;139404;-74
2023/02/06 08:49:16;;;;;;;82.10;45.80;;;;;;;-1.90;75.63;100925.36;226937;1276;139617;-74
2023/02/06 08:54:20;;;;;;;73.40;42.40;;;;;;;-1.81;75.83;100921.36;226897;1282;139177;-74
2023/02/06 08:59:23;;;;;;;61.90;34.50;;;;;;;-1.73;75.31;100917.80;227005;1283;24188;-74
2023/02/06 09:04:30;;;;;;;63.10;33.70;;;;;;;-1.67;75.05;100919.48;226983;1275;139310;-75
2023/02/06 09:09:36;;;;;;;58.70;32.60;;;;;;;-1.63;74.60;100919.84;226888;1272;140129;-75
2023/02/06 09:14:38;;;;;;;46.30;26.40;;;;;;;-1.55;74.52;100917.98;226926;1279;138920;-75
2023/02/06 09:19:40;;;;;;;31.20;19.40;;;;;;;-1.42;74.51;100920.91;226801;1275;138904;-75
2023/02/06 09:24:46;;;;;;;28.80;17.20;;;;;;;-1.39;73.34;100926.85;226986;1278;138900;-75
2023/02/06 09:29:51;;;;;;;26.90;15.40;;;;;;;-1.36;73.06;100930.38;226880;1274;138757;-75
2023/02/06 09:35:00;;;;;;;21.60;12.50;;;;;;;-1.28;72.96;100934.36;227111;1271;25339;-77
2023/02/06 09:40:05;;;;;;;17.60;11.00;;;;;;;-1.19;72.44;100932.12;227101;1275;139579;-77
2023/02/06 09:45:24;;;;;;;22.00;12.70;;;;;;;-1.14;71.78;100935.54;226930;1274;140049;-75
2023/02/06 09:51:05;;;;;;;30.20;17.30;;;;;;;-1.10;71.69;100931.40;226731;1270;394915;-75
2023/02/06 09:56:23;;;;;;;39.70;21.30;;;;;;;-1.01;71.32;100931.92;227058;1283;139043;-75
2023/02/06 10:01:37;;;;;;;33.00;18.40;;;;;;;-0.95;71.42;100935.13;226940;1281;139204;-76
2023/02/06 10:06:52;;;;;;;29.80;17.00;;;;;;;-0.88;70.93;100935.52;227008;1281;139499;-75
2023/02/06 10:12:17;;;;;;;25.80;15.40;;;;;;;-0.72;71.16;100939.56;227044;1281;138856;-80
2023/02/06 10:17:24;;;;;;;18.30;10.40;;;;;;;-0.59;70.69;100931.77;227025;1268;22326;-77
2023/02/06 10:22:53;;;;;;;17.50;10.80;;;;;;;-0.55;70.16;100931.23;227091;1281;24400;-77
2023/02/06 10:28:05;;;;;;;21.30;12.60;;;;;;;-0.50;69.53;100933.41;227076;1271;138490;-77
2023/02/06 10:33:24;;;;;;;19.20;12.00;;;;;;;-0.48;69.37;100928.17;227130;1275;139070;-78
2023/02/06 10:38:54;;;;;;;21.60;13.40;;;;;;;-0.41;69.33;100919.17;227102;1278;140003;-78
2023/02/06 10:44:15;;;;;;;27.80;16.00;;;;;;;-0.27;69.89;100912.71;227092;1275;140020;-78
2023/02/06 10:49:39;;;;;;;26.50;15.20;;;;;;;-0.18;68.96;100907.12;226990;1275;139360;-77
2023/02/06 10:54:51;;;;;;;26.30;15.70;;;;;;;-0.20;68.70;100901.83;227087;1276;138936;-78
2023/02/06 10:59:58;;;;;;;27.40;15.30;;;;;;;-0.08;68.85;100899.20;226907;1268;139078;-78
2023/02/06 11:05:08;;;;;;;24.80;14.00;;;;;;;0.07;68.94;100894.71;227062;1265;24817;-78
2023/02/06 11:10:17;;;;;;;25.30;14.60;;;;;;;0.17;68.64;100893.08;226979;1275;139243;-78
2023/02/06 11:15:45;;;;;;;22.30;13.50;;;;;;;0.21;68.16;100885.77;226900;1271;138895;-80
2023/02/06 11:20:50;;;;;;;17.50;11.90;;;;;;;0.21;67.87;100889.75;226962;1271;138621;-79
2023/02/06 11:26:18;;;;;;;19.40;11.80;;;;;;;0.25;67.34;100888.55;226867;1267;139221;-78
2023/02/06 11:31:41;;;;;;;17.90;11.80;;;;;;;0.32;67.47;100887.31;226846;1271;139352;-79
2023/02/06 11:36:51;;;;;;;22.10;11.90;;;;;;;0.42;67.40;100886.39;226795;1278;139477;-79
2023/02/06 11:42:02;;;;;;;18.50;12.00;;;;;;;0.48;67.31;100890.38;226664;1271;138763;-78
2023/02/06 11:47:27;;;;;;;20.00;11.20;;;;;;;0.59;67.23;100877.41;226745;1266;23697;-78
2023/02/06 11:52:32;;;;;;;19.90;12.80;;;;;;;0.62;66.60;100873.40;226904;1278;25909;-78
2023/02/06 11:57:35;;;;;;;17.50;10.70;;;;;;;0.65;66.56;100873.45;226799;1267;138527;-78
2023/02/06 12:02:50;;;;;;;23.30;13.70;;;;;;;0.62;66.39;100868.73;226880;1271;138872;-78
2023/02/06 12:08:04;;;;;;;26.30;14.60;;;;;;;0.60;66.29;100874.36;226864;1271;139411;-78
2023/02/06 12:13:27;;;;;;;19.90;12.30;;;;;;;0.55;66.03;100876.04;226996;1278;138797;-76
2023/02/06 12:18:38;;;;;;;23.50;14.20;;;;;;;0.50;66.03;100873.83;226856;1271;139081;-78
2023/02/06 12:23:54;;;;;;;21.20;13.00;;;;;;;0.49;65.85;100871.98;226899;1275;140206;-79
2023/02/06 12:29:15;;;;;;;22.40;13.70;;;;;;;0.47;65.74;100873.64;227044;1283;24268;-79
2023/02/06 12:34:23;;;;;;;25.60;13.90;;;;;;;0.42;65.77;100870.42;227002;1273;138179;-79
2023/02/06 12:39:31;;;;;;;27.10;16.50;;;;;;;0.38;65.66;100867.30;226895;1283;139184;-78
2023/02/06 12:44:45;;;;;;;26.90;17.20;;;;;;;0.42;65.64;100868.87;226854;1282;139542;-79
2023/02/06 12:50:33;;;;;;;30.10;16.30;;;;;;;0.43;65.65;100873.84;221938;1281;139031;-79
2023/02/06 12:55:44;;;;;;;26.50;14.80;;;;;;;0.37;65.31;100874.78;221639;1284;138683;-80
2023/02/06 13:01:00;;;;;;;;;;;;;;;0.25;64.86;100873.09;221619;1283;139397;-80
2023/02/06 13:06:20;;;;;;;28.20;16.60;;;;;;;0.12;65.17;100870.73;221917;1281;125277;-80
2023/02/06 13:11:27;;;;;;;;;;;;;;;0.01;65.55;100880.27;227207;1281;22480;-81
2023/02/06 13:17:20;;;;;;;32.90;17.60;;;;;;;-0.14;65.35;100885.11;227285;1282;24568;-81
2023/02/06 13:22:43;;;;;;;32.60;17.30;;;;;;;-0.22;65.24;100889.27;227119;1281;138527;-82
2023/02/06 13:28:13;;;;;;;;;;;;;;;;;;;;;
2023/02/06 13:33:42;;;;;;;20.30;12.30;;;;;;;-0.11;65.35;100896.77;227136;1275;138682;-81
2023/02/06 13:39:31;;;;;;;22.60;11.90;;;;;;;-0.18;65.26;100891.02;227121;1276;138714;-82
2023/02/06 13:44:53;;;;;;;19.40;10.60;;;;;;;-0.23;65.31;100872.36;227050;1266;138727;-83
2023/02/06 13:50:50;;;;;;;16.10;8.90;;;;;;;-0.27;65.41;100870.46;226869;1264;138831;-83
2023/02/06 13:56:38;;;;;;;16.40;10.50;;;;;;;-0.38;65.31;100878.70;226612;1279;138333;-83
2023/02/06 14:01:52;;;;;;;14.30;9.10;;;;;;;-0.45;65.69;100888.58;227184;1276;138763;-82
2023/02/06 14:07:20;;;;;;;16.60;10.20;;;;;;;-0.48;65.74;100892.84;227074;1281;139451;-83
2023/02/06 14:13:15;;;;;;;19.60;12.30;;;;;;;-0.50;65.82;100895.37;227016;1271;138880;-79
2023/02/06 14:18:39;;;;;;;20.50;11.20;;;;;;;-0.49;66.11;100895.30;227063;1275;139037;-78
2023/02/06 14:24:12;;;;;;;19.50;11.40;;;;;;;-0.53;65.94;100899.81;227033;1272;138978;-82
2023/02/06 14:30:01;;;;;;;17.40;11.10;;;;;;;-0.63;65.93;100900.56;226927;1270;139593;-79
2023/02/06 14:35:23;;;;;;;15.90;10.70;;;;;;;-0.76;65.76;100904.75;227185;1282;22378;-81
2023/02/06 14:40:30;;;;;;;17.00;10.00;;;;;;;-0.89;66.08;100908.78;226900;1275;139169;-84
2023/02/06 14:45:51;;;;;;;17.20;10.70;;;;;;;-0.99;66.28;100910.04;226872;1269;138919;-82
2023/02/06 14:51:38;;;;;;;14.50;10.10;;;;;;;-1.09;66.61;100906.66;227038;1276;138830;-82
2023/02/06 14:56:46;;;;;;;14.80;10.80;;;;;;;-1.22;66.82;100910.63;227139;1275;139106;-82
2023/02/06 15:01:55;;;;;;;18.20;10.50;;;;;;;-1.33;66.83;100916.41;222672;1279;139268;-80
2023/02/06 15:07:35;;;;;;;17.50;11.80;;;;;;;-1.43;67.22;100917.69;221894;1280;23396;-80
2023/02/06 15:12:37;;;;;;;20.60;11.70;;;;;;;-1.57;67.33;100919.80;221334;1280;23179;-80
2023/02/06 15:17:54;;;;;;;19.50;12.50;;;;;;;-1.72;67.37;100923.81;221180;1283;23631;-81
2023/02/06 15:23:06;;;;;;;19.10;12.30;;;;;;;-1.86;68.02;100928.48;221242;1279;22614;-79
2023/02/06 15:28:24;;;;;;;24.30;13.80;;;;;;;-2.04;68.19;100931.75;220971;1282;25427;-79
2023/02/06 15:33:31;;;;;;;27.00;15.90;;;;;;;-2.21;68.31;100933.23;220901;1279;22660;-77
2023/02/06 15:38:33;;;;;;;26.70;17.10;;;;;;;-2.33;68.85;100934.34;220955;1282;25592;-77
2023/02/06 15:43:45;;;;;;;23.90;14.10;;;;;;;-2.47;69.33;100930.14;220887;1283;22587;-78
2023/02/06 15:48:52;;;;;;;23.70;14.80;;;;;;;-2.61;69.12;100934.77;221043;1280;24412;-76
2023/02/06 15:54:21;;;;;;;26.60;15.30;;;;;;;-2.71;69.59;100947.02;220819;1268;24296;-77
2023/02/06 15:59:25;;;;;;;26.00;14.70;;;;;;;-2.82;70.01;100955.98;221067;1283;22552;-76
2023/02/06 16:04:38;;;;;;;26.40;15.10;;;;;;;-2.92;70.08;100958.05;220965;1277;24351;-76
2023/02/06 16:09:52;;;;;;;26.40;14.80;;;;;;;-3.03;70.19;100963.94;221007;1283;22583;-75
2023/02/06 16:14:59;;;;;;;26.30;15.80;;;;;;;-3.18;70.37;100958.86;221215;1280;26391;-74
2023/02/06 16:20:25;;;;;;;26.70;16.00;;;;;;;-3.31;70.37;100957.56;220981;1283;25495;-75
2023/02/06 16:25:30;;;;;;;28.30;15.20;;;;;;;-3.42;70.54;100956.86;220857;1276;24278;-73
2023/02/06 16:30:34;;;;;;;30.30;16.80;;;;;;;-3.55;70.61;100955.52;220895;1277;25703;-74
2023/02/06 16:35:37;;;;;;;33.60;18.70;;;;;;;-3.65;71.02;100960.46;221068;1283;22799;-74
2023/02/06 16:40:40;;;;;;;40.80;21.50;;;;;;;-3.74;71.27;100967.98;220963;1276;22712;-74
2023/02/06 16:45:42;;;;;;;49.70;27.20;;;;;;;-3.80;71.54;100982.44;220970;1280;22709;-74
2023/02/06 16:50:46;;;;;;;51.30;29.40;;;;;;;-3.87;71.76;100989.67;220930;1279;24255;-75
2023/02/06 16:55:49;;;;;;;53.60;31.40;;;;;;;-3.93;71.76;100990.70;220825;1260;22885;-73
2023/02/06 17:00:51;;;;;;;56.70;32.50;;;;;;;-4.01;71.82;100997.14;220856;1280;25472;-73
2023/02/06 17:05:53;;;;;;;54.90;29.40;;;;;;;-4.10;71.81;101011.48;220740;1277;22624;-74
2023/02/06 17:10:55;;;;;;;54.40;29.10;;;;;;;-4.19;71.86;101021.36;220881;1279;24298;-73
2023/02/06 17:15:57;;;;;;;56.60;29.30;;;;;;;-4.28;71.96;101025.89;220928;1277;22663;-73
2023/02/06 17:20:59;;;;;;;57.60;30.90;;;;;;;-4.37;72.04;101023.04;220963;1279;22669;-73
2023/02/06 17:26:01;;;;;;;55.00;30.80;;;;;;;-4.45;72.16;101019.44;220702;1279;24238;-74
2023/02/06 17:31:03;;;;;;;60.70;32.90;;;;;;;-4.54;72.28;101016.92;220926;1279;22853;-72
2023/02/06 17:36:10;;;;;;;56.80;30.60;;;;;;;-4.64;72.28;101014.07;220976;1277;25512;-73
2023/02/06 17:41:12;;;;;;;52.60;27.60;;;;;;;-4.70;72.55;101013.52;220824;1278;23032;-73
2023/02/06 17:46:15;;;;;;;46.90;25.90;;;;;;;-4.77;72.63;101023.16;220922;1279;22942;-72
2023/02/06 17:51:17;;;;;;;59.10;29.80;;;;;;;-4.83;72.66;101020.71;220882;1283;22577;-72
2023/02/06 17:56:19;;;;;;;62.90;32.10;;;;;;;-4.89;72.83;101018.95;220890;1281;25517;-72
2023/02/06 18:01:22;;;;;;;63.90;32.70;;;;;;;-4.96;73.03;101022.23;220847;1280;24273;-73
2023/02/06 18:06:25;;;;;;;76.70;39.00;;;;;;;-5.04;73.31;101026.02;220654;1283;22746;-73
2023/02/06 18:11:27;;;;;;;75.70;40.70;;;;;;;-5.11;73.42;101034.59;220803;1276;22740;-72
2023/02/06 18:16:30;;;;;;;73.60;38.80;;;;;;;-5.18;73.44;101034.23;220793;1260;27553;-72
2023/02/06 18:21:32;;;;;;;76.90;39.50;;;;;;;-5.25;73.73;101041.42;220950;1281;24288;-73
2023/02/06 18:26:34;;;;;;;85.50;41.30;;;;;;;-5.31;74.00;101047.02;220841;1276;24282;-72
2023/02/06 18:31:36;;;;;;;80.20;42.10;;;;;;;-5.37;74.16;101050.44;220794;1279;22840;-72
2023/02/06 18:36:38;;;;;;;86.40;42.90;;;;;;;-5.42;74.08;101051.40;220834;1275;22528;-72
2023/02/06 18:47:01;;;;;;;121.60;59.90;;;;;;;-5.53;74.40;101054.38;220914;1281;23606;-72
2023/02/06 18:52:04;;;;;;;128.50;62.10;;;;;;;-5.58;74.72;101057.22;220859;1279;22787;-71
2023/02/06 18:57:05;;;;;;;113.40;55.70;;;;;;;-5.63;74.81;101052.69;221036;1280;25489;-71
2023/02/06 19:02:10;;;;;;;101.60;51.00;;;;;;;-5.71;75.10;101044.60;220917;1275;22569;-72
2023/02/06 19:07:12;;;;;;;89.20;45.10;;;;;;;-5.78;75.31;101032.36;220839;1281;22768;-72
2023/02/06 19:12:14;;;;;;;98.30;47.00;;;;;;;-5.87;75.36;101034.11;220745;1275;22596;-72
2023/02/06 19:17:16;;;;;;;99.50;48.60;;;;;;;-5.95;75.50;101034.13;220808;1275;22689;-72
2023/02/06 19:22:18;;;;;;;101.50;49.80;;;;;;;-6.03;75.76;101040.09;220863;1280;22913;-72
2023/02/06 19:27:20;;;;;;;98.50;45.50;;;;;;;-6.09;76.04;101042.10;220838;1279;22699;-72
2023/02/06 19:32:25;;;;;;;108.70;51.50;;;;;;;-6.14;76.46;101042.02;220758;1280;22554;-73
2023/02/06 19:37:27;;;;;;;113.20;51.90;;;;;;;-6.21;76.45;101051.39;220748;1276;25588;-72
2023/02/06 19:42:28;;;;;;;112.70;51.60;;;;;;;-6.28;76.67;101048.11;220772;1283;22701;-71
2023/02/06 19:47:30;;;;;;;116.20;51.10;;;;;;;-6.35;76.69;101050.61;220675;1277;22711;-72
2023/02/06 19:52:34;;;;;;;107.40;49.20;;;;;;;-6.44;76.66;101058.14;220788;1279;22609;-72
2023/02/06 19:57:37;;;;;;;106.20;51.00;;;;;;;-6.50;76.67;101065.08;220776;1280;26635;-71
2023/02/06 20:02:40;;;;;;;133.90;64.80;;;;;;;-6.57;76.70;101061.44;220693;1280;22665;-71
2023/02/06 20:07:42;;;;;;;109.90;51.50;;;;;;;-6.62;76.93;101051.73;220716;1280;24305;-72
2023/02/06 20:12:45;;;;;;;105.10;47.50;;;;;;;-6.67;77.24;101051.98;220905;1278;22691;-71
2023/02/06 20:17:49;;;;;;;114.80;54.70;;;;;;;-6.74;77.29;101056.04;221076;1281;23934;-72
2023/02/06 20:22:51;;;;;;;112.20;53.60;;;;;;;-6.78;77.38;101065.70;220733;1279;25556;-72
2023/02/06 20:27:53;;;;;;;100.30;48.90;;;;;;;-6.82;77.55;101069.70;220721;1283;25390;-72
2023/02/06 20:32:56;;;;;;;99.60;46.10;;;;;;;-6.88;77.53;101090.69;220866;1283;24608;-73
2023/02/06 20:37:58;;;;;;;94.50;43.80;;;;;;;-6.92;77.78;101102.39;220860;1277;22710;-71
2023/02/06 20:43:00;;;;;;;97.00;48.00;;;;;;;-7.00;77.77;101108.49;220878;1279;25549;-72
2023/02/06 20:48:01;;;;;;;112.20;48.40;;;;;;;-7.05;77.84;101110.44;220870;1259;22817;-71
2023/02/06 20:53:04;;;;;;;111.60;51.40;;;;;;;-7.09;78.25;101117.86;220871;1280;22992;-72
2023/02/06 20:58:09;;;;;;;127.60;59.90;;;;;;;-7.10;78.22;101120.26;220936;1283;22696;-70
2023/02/06 21:03:12;;;;;;;155.00;67.10;;;;;;;-7.11;78.33;101131.39;220838;1275;22692;-72
2023/02/06 21:08:13;;;;;;;169.80;68.20;;;;;;;-7.06;78.60;101138.88;220823;1271;22906;-71
2023/02/06 21:13:16;;;;;;;123.60;54.20;;;;;;;-6.95;78.53;101134.62;220777;1275;24160;-71
2023/02/06 21:18:19;;;;;;;116.50;50.50;;;;;;;-6.87;78.58;101139.84;220883;1281;24499;-72
2023/02/06 21:23:23;;;;;;;152.30;67.30;;;;;;;-6.81;78.45;101137.34;220903;1275;22764;-72
2023/02/06 21:28:25;;;;;;;213.90;86.20;;;;;;;-6.78;78.44;101140.38;220876;1280;25670;-72
2023/02/06 21:33:27;;;;;;;218.10;91.10;;;;;;;-6.76;78.51;101144.64;220835;1280;25619;-71
2023/02/06 21:38:29;;;;;;;174.80;80.40;;;;;;;-6.74;78.77;101154.55;220703;1278;25665;-70
2023/02/06 21:43:31;;;;;;;185.60;81.70;;;;;;;-6.76;78.62;101157.31;220934;1278;22770;-71
2023/02/06 21:48:34;;;;;;;155.20;72.80;;;;;;;-6.80;78.94;101170.55;220719;1279;22740;-71
2023/02/06 21:53:37;;;;;;;128.10;57.70;;;;;;;-6.85;78.77;101182.98;220619;1279;299609;-71
2023/02/06 21:58:39;;;;;;;139.30;59.30;;;;;;;-6.93;78.60;101178.77;220820;1261;25184;-71
2023/02/06 22:03:43;;;;;;;123.90;54.90;;;;;;;-7.04;78.69;101189.20;220929;1273;23603;-72
2023/02/06 22:08:50;;;;;;;151.60;67.10;;;;;;;-7.18;78.51;101202.20;220963;1271;22728;-71
2023/02/06 22:14:00;;;;;;;152.70;68.10;;;;;;;-7.26;78.80;101213.25;220972;1283;22690;-73
2023/02/06 22:19:03;;;;;;;157.00;67.90;;;;;;;-7.30;79.19;101221.17;220859;1275;25640;-71
2023/02/06 22:24:06;;;;;;;171.70;76.00;;;;;;;-7.36;79.19;101217.98;220901;1279;25639;-71
2023/02/06 22:29:14;;;;;;;170.90;70.70;;;;;;;-7.42;79.19;101221.98;220794;1277;24248;-70
2023/02/06 22:34:19;;;;;;;188.10;81.80;;;;;;;-7.49;79.36;101225.98;220872;1283;22565;-71
2023/02/06 22:39:21;;;;;;;185.90;80.80;;;;;;;-7.54;79.53;101225.84;220722;1280;25531;-71
2023/02/06 22:44:23;;;;;;;175.60;77.90;;;;;;;-7.58;79.60;101220.24;220757;1276;25556;-70
2023/02/06 22:49:25;;;;;;;167.80;74.00;;;;;;;-7.63;79.67;101201.13;220787;1280;25497;-72
2023/02/06 22:54:27;;;;;;;177.40;76.70;;;;;;;-7.71;79.77;101199.14;220833;1271;24497;-70
2023/02/06 22:59:29;;;;;;;156.60;68.60;;;;;;;-7.80;79.54;101197.86;220839;1281;22769;-71
2023/02/06 23:04:34;;;;;;;174.70;77.80;;;;;;;-7.87;79.61;101202.90;220823;1283;24404;-71
2023/02/06 23:09:37;;;;;;;175.40;80.80;;;;;;;-7.91;79.94;101198.98;220641;1283;22715;-71
2023/02/06 23:14:39;;;;;;;164.10;79.30;;;;;;;-7.91;80.19;101181.20;220685;1260;24300;-71